Time;durP1;ratioP1;P1;durP2;ratioP2;P2;SDS_P1;SDS_P2;PMS_P1;PMS_P2;Temp;Humidity;BMP_temperature;BMP_pressure;BME280_temperature;BME280_humidity;BME280_pressure;Samples;Min_cycle;Max_cycle;Signal;HPM_P1;HPM_P2
2024/01/07 00:01:49;;;;;;;18.40;9.40;;;;;;;-2.32;80.11;98968.63;108036;1307;22257;-42
2024/01/07 00:04:15;;;;;;;18.30;9.40;;;;;;;-2.36;79.50;98973.11;108029;1307;23001;-39
2024/01/07 00:06:40;;;;;;;17.70;8.60;;;;;;;-2.41;78.78;98974.55;108054;1307;22258;-41
2024/01/07 00:09:05;;;;;;;18.80;9.50;;;;;;;-2.47;78.64;98978.01;108004;1307;22415;-38
2024/01/07 00:11:31;;;;;;;16.40;8.20;;;;;;;-2.45;79.11;98979.39;108034;1307;22272;-40
2024/01/07 00:13:56;;;;;;;18.70;8.80;;;;;;;-2.48;79.23;98977.52;108028;1307;22393;-39
2024/01/07 00:16:21;;;;;;;16.30;8.80;;;;;;;-2.57;78.90;98976.89;108020;1307;22939;-40
2024/01/07 00:18:46;;;;;;;18.70;8.00;;;;;;;-2.59;78.91;98977.77;108027;1307;22268;-40
2024/01/07 00:21:12;;;;;;;17.10;8.00;;;;;;;-2.57;79.34;98978.27;108027;1307;22414;-39
2024/01/07 00:23:37;;;;;;;18.40;8.80;;;;;;;-2.56;79.43;98983.23;108040;1307;24330;-40
2024/01/07 00:26:03;;;;;;;17.60;8.60;;;;;;;-2.53;79.69;98985.61;108027;1307;22408;-39
2024/01/07 00:28:28;;;;;;;14.50;7.80;;;;;;;-2.54;79.63;98991.29;108037;1306;22248;-40
2024/01/07 00:30:54;;;;;;;15.10;7.90;;;;;;;-2.61;79.27;98992.20;108030;1306;23180;-38
2024/01/07 00:33:19;;;;;;;16.10;7.90;;;;;;;-2.61;79.19;98991.52;108041;1306;23070;-38
2024/01/07 00:35:44;;;;;;;15.10;8.80;;;;;;;-2.70;78.91;98994.83;108023;1306;24373;-37
2024/01/07 00:38:10;;;;;;;18.10;9.10;;;;;;;-2.73;79.20;98997.07;108024;1307;22268;-39
2024/01/07 00:40:35;;;;;;;15.10;8.10;;;;;;;-2.71;79.38;98997.75;108034;1289;22236;-37
2024/01/07 00:43:00;;;;;;;16.50;8.80;;;;;;;-2.68;79.32;98998.23;108010;1306;22233;-39
2024/01/07 00:45:25;;;;;;;17.00;8.20;;;;;;;-2.68;79.73;99000.47;108029;1306;22288;-38
2024/01/07 00:47:52;;;;;;;16.90;7.80;;;;;;;-2.68;79.59;98998.77;108027;1307;22239;-38
2024/01/07 00:50:17;;;;;;;13.90;8.00;;;;;;;-2.70;79.70;99000.33;108034;1306;23201;-38
2024/01/07 00:52:43;;;;;;;13.90;8.30;;;;;;;-2.76;79.40;99004.48;108037;1306;22544;-39
2024/01/07 00:55:08;;;;;;;13.40;7.80;;;;;;;-2.81;79.35;99003.30;108041;1306;22250;-38
2024/01/07 00:57:34;;;;;;;14.70;7.70;;;;;;;-2.84;79.54;99001.77;108033;1306;22858;-41
2024/01/07 01:00:04;;;;;;;13.90;7.70;;;;;;;-2.86;79.66;99001.10;108049;1307;22445;-38
2024/01/07 01:02:29;;;;;;;17.20;8.50;;;;;;;-2.85;79.27;99000.73;108040;1306;22205;-40
2024/01/07 01:04:55;;;;;;;20.00;8.30;;;;;;;-2.96;79.11;98997.55;108006;1307;22185;-39
2024/01/07 01:07:20;;;;;;;17.10;8.30;;;;;;;-3.05;79.50;98999.66;108034;1307;22240;-41
2024/01/07 01:09:45;;;;;;;17.10;8.60;;;;;;;-3.03;79.68;99000.86;108050;1307;22242;-41
2024/01/07 01:12:10;;;;;;;15.00;7.50;;;;;;;-2.99;79.85;99001.86;108033;1307;22498;-41
2024/01/07 01:14:36;;;;;;;13.10;7.60;;;;;;;-3.04;79.87;98998.45;108053;1307;22268;-38
2024/01/07 01:17:01;;;;;;;14.00;7.70;;;;;;;-3.10;79.74;98997.11;108023;1307;22417;-39
2024/01/07 01:19:27;;;;;;;13.90;7.80;;;;;;;-3.11;79.90;98994.72;108016;1307;22412;-37
2024/01/07 01:21:52;;;;;;;12.80;7.80;;;;;;;-3.13;79.60;98997.98;108014;1307;22415;-38
2024/01/07 01:24:17;;;;;;;13.00;7.40;;;;;;;-3.11;80.22;98996.61;108028;1307;23058;-39
2024/01/07 01:26:43;;;;;;;13.10;7.60;;;;;;;-3.12;80.34;98993.01;108026;1307;23261;-40
2024/01/07 01:29:08;;;;;;;15.10;7.80;;;;;;;-3.11;80.28;98994.71;108027;1306;22428;-40
2024/01/07 01:31:33;;;;;;;12.70;6.60;;;;;;;-3.07;80.68;98996.58;108046;1306;22218;-38
2024/01/07 01:33:59;;;;;;;14.90;7.30;;;;;;;-3.04;80.61;98995.20;108027;1306;22933;-38
2024/01/07 01:36:24;;;;;;;12.10;6.60;;;;;;;-3.01;80.77;98994.67;108025;1306;22239;-38
2024/01/07 01:38:49;;;;;;;12.90;7.10;;;;;;;-2.95;80.94;98997.38;108023;1307;23085;-40
2024/01/07 01:41:16;;;;;;;12.60;7.10;;;;;;;-2.95;80.32;98997.20;108018;1306;23172;-38
2024/01/07 01:43:41;;;;;;;12.50;7.00;;;;;;;-3.01;80.01;98998.10;108041;1306;22310;-38
2024/01/07 01:46:06;;;;;;;14.30;7.60;;;;;;;-3.00;80.36;98995.52;108046;1306;22822;-39
2024/01/07 01:48:32;;;;;;;13.70;7.20;;;;;;;-2.98;80.74;99003.05;108032;1306;22397;-41
2024/01/07 01:50:57;;;;;;;16.80;7.80;;;;;;;-3.01;80.37;99003.75;108037;1306;22224;-40
2024/01/07 01:53:26;;;;;;;14.20;8.50;;;;;;;-3.03;80.14;99006.00;108023;1307;22155;-40
2024/01/07 01:55:54;;;;;;;16.40;8.50;;;;;;;-3.07;80.28;99002.77;108031;1307;22212;-41
2024/01/07 01:58:20;;;;;;;14.10;7.20;;;;;;;-3.05;80.37;99004.47;108037;1306;23323;-38
2024/01/07 02:00:45;;;;;;;17.30;8.40;;;;;;;-3.15;80.23;99006.22;108016;1307;22245;-39
2024/01/07 02:03:11;;;;;;;15.30;8.20;;;;;;;-3.22;80.34;99014.66;108004;1307;22390;-40
2024/01/07 02:05:36;;;;;;;14.60;7.30;;;;;;;-3.33;80.81;99014.88;108016;1307;22777;-39
2024/01/07 02:08:02;;;;;;;12.70;6.90;;;;;;;-3.37;81.13;99015.58;108015;1307;22406;-40
2024/01/07 02:10:34;;;;;;;15.40;7.80;;;;;;;-3.42;81.34;99008.91;108043;1306;22453;-38
2024/01/07 02:12:59;;;;;;;12.50;7.40;;;;;;;-3.42;81.39;99012.15;108035;1307;22507;-40
2024/01/07 02:15:25;;;;;;;15.60;7.20;;;;;;;-3.42;81.79;99012.67;108041;1307;23181;-41
2024/01/07 02:17:51;;;;;;;15.10;6.90;;;;;;;-3.38;81.62;99011.64;108049;1307;22191;-39
2024/01/07 02:20:16;;;;;;;15.80;7.80;;;;;;;-3.44;81.56;99012.50;108041;1307;22302;-38
2024/01/07 02:22:41;;;;;;;16.10;7.90;;;;;;;-3.46;81.82;99012.52;108021;1306;22229;-40
2024/01/07 02:25:08;;;;;;;15.80;7.50;;;;;;;-3.44;82.37;99010.45;108028;1307;22318;-36
2024/01/07 02:27:33;;;;;;;14.40;7.60;;;;;;;-3.38;82.42;99010.09;108034;1306;22297;-38
2024/01/07 02:29:59;;;;;;;12.30;7.00;;;;;;;-3.39;82.14;99008.90;108022;1307;22320;-37
2024/01/07 02:32:24;;;;;;;16.90;8.40;;;;;;;-3.40;82.11;99007.70;108036;1306;22238;-39
2024/01/07 02:34:49;;;;;;;17.20;8.30;;;;;;;-3.40;82.34;99009.92;108016;1307;22416;-38
2024/01/07 02:37:14;;;;;;;11.30;6.80;;;;;;;-3.39;81.93;99010.78;108048;1306;22421;-37
2024/01/07 02:39:40;;;;;;;13.80;7.60;;;;;;;-3.43;81.78;99008.56;108049;1307;23056;-38
2024/01/07 02:42:05;;;;;;;13.90;7.40;;;;;;;-3.58;81.73;99008.44;108043;1306;22387;-39
2024/01/07 02:44:32;;;;;;;14.70;7.90;;;;;;;-3.65;82.35;99008.45;108023;1306;22226;-40
2024/01/07 02:46:57;;;;;;;17.00;8.20;;;;;;;-3.69;82.54;99011.20;108037;1306;22884;-38
2024/01/07 02:49:22;;;;;;;15.10;7.20;;;;;;;-3.72;82.56;99005.39;108021;1306;22458;-37
2024/01/07 02:51:49;;;;;;;14.30;8.90;;;;;;;-3.74;82.43;99008.82;108010;1306;22329;-40
2024/01/07 02:54:15;;;;;;;14.40;8.10;;;;;;;-3.78;82.60;99010.70;108030;1306;22244;-38
2024/01/07 03:00:16;;;;;;;16.60;8.80;;;;;;;-3.76;82.74;99009.17;107012;1312;557592;-38
2024/01/07 03:02:42;;;;;;;17.50;8.80;;;;;;;-3.73;82.90;99009.50;107344;1313;23436;-38
2024/01/07 03:05:07;;;;;;;21.60;9.50;;;;;;;-3.83;82.59;99011.94;107363;1313;22480;-39
2024/01/07 03:07:33;;;;;;;18.80;9.00;;;;;;;-3.86;82.69;99013.83;107370;1313;22732;-39
2024/01/07 03:09:58;;;;;;;20.80;9.30;;;;;;;-3.89;83.59;99014.85;107344;1313;22265;-39
2024/01/07 03:12:23;;;;;;;15.00;8.10;;;;;;;-3.86;83.07;99010.91;107208;1311;140897;-40
2024/01/07 03:14:49;;;;;;;14.70;8.40;;;;;;;-3.90;83.10;99013.65;107510;1311;22439;-39
2024/01/07 03:17:17;;;;;;;17.20;8.10;;;;;;;-3.93;82.85;99016.21;107529;1311;22961;-36
2024/01/07 03:19:42;;;;;;;15.40;8.20;;;;;;;-3.91;83.07;99015.88;107520;1311;22482;-37
2024/01/07 03:22:07;;;;;;;16.40;8.60;;;;;;;-3.88;83.04;99012.79;107500;1311;22280;-37
2024/01/07 03:24:33;;;;;;;14.50;8.40;;;;;;;-3.92;82.88;99015.36;107519;1311;22369;-37
2024/01/07 03:26:58;;;;;;;13.70;8.00;;;;;;;-4.04;83.12;99019.64;107543;1311;22258;-40
2024/01/07 03:29:23;;;;;;;12.50;7.60;;;;;;;-4.05;83.37;99022.06;107511;1311;23002;-39
2024/01/07 03:31:50;;;;;;;14.20;8.20;;;;;;;-4.09;83.42;99018.98;107501;1311;22279;-38
2024/01/07 03:34:15;;;;;;;12.20;7.50;;;;;;;-4.07;83.66;99023.59;107558;1311;22237;-37
2024/01/07 03:36:41;;;;;;;15.10;8.10;;;;;;;-4.05;83.52;99023.59;107546;1311;22290;-37
2024/01/07 03:39:06;;;;;;;16.70;8.80;;;;;;;-4.06;83.19;99026.34;107577;1311;22874;-40
2024/01/07 03:41:31;;;;;;;14.50;8.00;;;;;;;-4.17;82.98;99027.52;107535;1311;22247;-39
2024/01/07 03:43:57;;;;;;;13.20;8.20;;;;;;;-4.23;83.08;99027.88;107538;1304;22234;-38
2024/01/07 03:46:22;;;;;;;13.80;7.60;;;;;;;-4.28;83.73;99030.27;107530;1311;22518;-37
2024/01/07 03:48:48;;;;;;;14.10;8.40;;;;;;;-4.23;83.69;99030.62;107551;1311;22398;-37
2024/01/07 03:51:13;;;;;;;10.30;7.20;;;;;;;-4.30;83.68;99033.35;107568;1311;22261;-40
2024/01/07 03:53:38;;;;;;;13.50;8.70;;;;;;;-4.29;83.62;99032.33;107550;1311;22451;-39
2024/01/07 03:56:04;;;;;;;13.30;8.20;;;;;;;-4.28;83.75;99031.48;107562;1311;22333;-37
2024/01/07 03:58:30;;;;;;;12.80;7.30;;;;;;;-4.24;83.90;99033.02;107571;1311;22414;-39
2024/01/07 04:00:55;;;;;;;16.10;7.80;;;;;;;-4.18;84.03;99037.98;107545;1311;22245;-37
2024/01/07 04:03:20;;;;;;;13.90;7.70;;;;;;;-4.11;83.83;99038.15;107539;1311;23084;-39
2024/01/07 04:05:45;;;;;;;15.80;7.80;;;;;;;-4.07;83.92;99036.45;107532;1311;22407;-39
2024/01/07 04:08:12;;;;;;;13.40;7.50;;;;;;;-4.03;83.88;99042.26;107556;1311;23883;-38
2024/01/07 04:10:37;;;;;;;13.70;7.20;;;;;;;-3.99;83.88;99043.80;107541;1311;22251;-39
2024/01/07 04:13:04;;;;;;;13.10;7.40;;;;;;;-3.98;83.65;99043.79;107526;1311;22256;-40
2024/01/07 04:15:29;;;;;;;14.90;7.60;;;;;;;-3.99;83.50;99042.77;107529;1311;22451;-38
2024/01/07 04:17:54;;;;;;;11.70;6.60;;;;;;;-3.97;83.55;99047.73;107646;1310;22316;-39
2024/01/07 04:20:20;;;;;;;13.50;7.50;;;;;;;-4.01;83.16;99050.31;107655;1310;22305;-40
2024/01/07 04:22:45;;;;;;;12.70;7.20;;;;;;;-4.12;82.75;99047.90;107678;1310;22272;-38
2024/01/07 04:25:11;;;;;;;11.50;6.70;;;;;;;-4.23;83.00;99049.80;107658;1310;22319;-37
2024/01/07 04:27:37;;;;;;;10.90;6.90;;;;;;;-4.23;83.18;99048.94;107643;1295;23051;-38
2024/01/07 04:30:03;;;;;;;14.50;7.60;;;;;;;-4.37;83.16;99049.61;107656;1310;22262;-37
2024/01/07 04:32:28;;;;;;;10.90;6.90;;;;;;;-4.43;83.47;99052.52;107639;1310;22565;-39
2024/01/07 04:34:54;;;;;;;12.90;7.40;;;;;;;-4.47;83.46;99055.08;107625;1310;22260;-38
2024/01/07 04:37:19;;;;;;;11.80;6.70;;;;;;;-4.53;83.96;99054.05;107650;1310;22262;-40
2024/01/07 04:39:44;;;;;;;12.50;7.40;;;;;;;-4.56;83.99;99058.48;107835;1308;22412;-38
2024/01/07 04:42:10;;;;;;;15.60;8.70;;;;;;;-4.62;84.35;99062.06;107872;1308;24114;-40
2024/01/07 04:44:35;;;;;;;14.10;8.70;;;;;;;-4.58;84.56;99061.05;107856;1308;22487;-39
2024/01/07 04:47:00;;;;;;;16.30;8.60;;;;;;;-4.64;84.69;99061.04;107830;1308;22345;-41
2024/01/07 04:49:26;;;;;;;13.00;8.10;;;;;;;-4.57;84.71;99069.27;107832;1308;22197;-40
2024/01/07 04:51:51;;;;;;;12.00;7.40;;;;;;;-4.60;84.61;99066.52;107827;1308;22269;-37
2024/01/07 04:54:16;;;;;;;14.20;8.70;;;;;;;-4.65;84.48;99068.73;107870;1308;22239;-39
2024/01/07 04:56:42;;;;;;;16.30;8.10;;;;;;;-4.77;84.63;99069.22;107834;1308;22313;-37
2024/01/07 04:59:07;;;;;;;14.90;8.20;;;;;;;-4.77;84.84;99070.91;107851;1308;22222;-39
2024/01/07 05:01:33;;;;;;;14.40;7.60;;;;;;;-4.77;85.01;99070.41;107842;1308;22781;-39
2024/01/07 05:03:58;;;;;;;13.20;9.00;;;;;;;-4.80;85.07;99072.63;107843;1308;22254;-37
2024/01/07 05:06:24;;;;;;;14.00;7.70;;;;;;;-4.77;85.29;99071.61;107852;1308;22338;-37
2024/01/07 05:08:49;;;;;;;15.00;8.70;;;;;;;-4.80;85.26;99077.73;107840;1308;22924;-39
2024/01/07 05:11:17;;;;;;;12.90;8.20;;;;;;;-4.83;85.19;99073.45;107842;1308;22251;-38
2024/01/07 05:13:42;;;;;;;;;;;;;;;-4.83;85.10;99078.77;107884;1308;23867;-38
2024/01/07 05:16:07;;;;;;;14.90;9.00;;;;;;;-4.99;85.03;99085.21;107832;1308;23080;-38
2024/01/07 05:18:32;;;;;;;13.40;8.60;;;;;;;-5.09;84.80;99087.39;107842;1308;22231;-39
2024/01/07 05:20:58;;;;;;;13.70;8.50;;;;;;;-5.17;85.22;99088.03;107838;1308;23092;-38
2024/01/07 05:23:23;;;;;;;14.30;8.60;;;;;;;-5.16;85.42;99089.91;107857;1308;22408;-39
2024/01/07 05:25:48;;;;;;;17.10;8.90;;;;;;;-5.16;85.14;99094.36;107840;1308;23384;-39
2024/01/07 05:28:14;;;;;;;13.70;8.50;;;;;;;-5.13;85.10;99094.02;107860;1308;22324;-38
2024/01/07 05:30:43;;;;;;;13.00;9.30;;;;;;;-5.11;85.32;99093.72;107858;1308;22240;-39
2024/01/07 05:33:08;;;;;;;18.00;8.90;;;;;;;-5.08;85.44;99095.09;107844;1308;22221;-38
2024/01/07 05:35:34;;;;;;;16.30;10.00;;;;;;;-5.07;85.26;99094.92;107831;1308;22930;-38
2024/01/07 05:38:00;;;;;;;15.60;9.10;;;;;;;-5.12;85.16;99096.61;107873;1308;22290;-39
2024/01/07 05:40:25;;;;;;;15.90;9.20;;;;;;;-5.17;85.18;99090.60;107810;1308;22483;-40
2024/01/07 05:42:50;;;;;;;16.70;9.30;;;;;;;-5.14;85.59;99092.66;107846;1308;22306;-39
2024/01/07 05:45:16;;;;;;;14.90;8.90;;;;;;;-5.17;85.44;99097.95;107849;1308;22477;-40
2024/01/07 05:47:41;;;;;;;16.60;9.90;;;;;;;-5.24;85.56;99100.98;107863;1308;22475;-39
2024/01/07 05:50:07;;;;;;;16.10;9.10;;;;;;;-5.22;85.42;99095.36;107809;1308;22449;-38
2024/01/07 05:52:33;;;;;;;14.70;9.00;;;;;;;-5.26;85.59;99097.73;107842;1308;22271;-38
2024/01/07 05:54:58;;;;;;;15.80;9.40;;;;;;;-5.27;85.50;99096.70;107845;1308;22272;-39
2024/01/07 05:57:24;;;;;;;15.40;9.00;;;;;;;-5.25;85.40;99094.84;107854;1308;22424;-39
2024/01/07 05:59:50;;;;;;;15.30;8.30;;;;;;;-5.31;85.90;99100.77;107820;1308;22414;-38
2024/01/07 06:02:16;;;;;;;15.40;9.20;;;;;;;-5.32;85.50;99097.54;107842;1308;22244;-39
2024/01/07 06:04:42;;;;;;;16.10;9.00;;;;;;;-5.39;85.56;99099.37;107826;1308;22229;-39
2024/01/07 06:07:08;;;;;;;17.00;9.00;;;;;;;-5.43;85.93;99097.46;107821;1308;22428;-38
2024/01/07 06:09:33;;;;;;;19.80;10.00;;;;;;;-5.42;85.84;99097.64;107839;1308;23276;-38
2024/01/07 06:11:58;;;;;;;16.90;9.30;;;;;;;-5.44;85.64;99100.70;107814;1308;22280;-39
2024/01/07 06:14:24;;;;;;;14.60;9.10;;;;;;;-5.53;85.82;99097.92;107821;1308;22422;-39
2024/01/07 06:16:49;;;;;;;15.70;8.70;;;;;;;-5.50;86.20;99102.55;107814;1308;22235;-39
2024/01/07 06:19:16;;;;;;;17.20;8.70;;;;;;;-5.45;85.88;99102.24;107836;1308;22295;-40
2024/01/07 06:21:42;;;;;;;19.70;10.70;;;;;;;-5.44;85.54;99101.39;107844;1308;22657;-37
2024/01/07 06:24:08;;;;;;;17.20;10.10;;;;;;;-5.57;85.66;99104.21;107844;1308;22224;-41
2024/01/07 06:26:33;;;;;;;19.30;9.10;;;;;;;-5.58;85.77;99109.51;107844;1308;22251;-40
2024/01/07 06:28:59;;;;;;;16.70;9.80;;;;;;;-5.62;85.81;99115.98;107840;1308;22200;-39
2024/01/07 06:31:25;;;;;;;16.80;9.70;;;;;;;-5.66;86.14;99120.39;107843;1308;23206;-41
2024/01/07 06:33:50;;;;;;;19.70;11.40;;;;;;;-5.65;85.93;99120.05;107824;1308;23321;-38
2024/01/07 06:36:16;;;;;;;19.10;11.70;;;;;;;-5.62;86.07;99125.19;107859;1308;22798;-40
2024/01/07 06:38:41;;;;;;;19.50;10.80;;;;;;;-5.72;86.01;99131.94;107850;1308;22893;-41
2024/01/07 06:41:06;;;;;;;16.50;10.10;;;;;;;-5.83;86.43;99135.45;107833;1308;22449;-40
2024/01/07 06:43:32;;;;;;;17.90;10.90;;;;;;;-5.74;86.36;99136.89;107818;1308;22269;-40
2024/01/07 06:45:57;;;;;;;32.80;15.10;;;;;;;-5.65;86.43;99139.85;107821;1308;22505;-39
2024/01/07 06:48:22;;;;;;;20.50;10.60;;;;;;;-5.59;86.05;99146.56;107822;1308;22441;-38
2024/01/07 06:50:48;;;;;;;18.70;10.20;;;;;;;-5.59;85.36;99145.70;107840;1308;22423;-38
2024/01/07 06:53:13;;;;;;;21.30;11.20;;;;;;;-5.69;85.27;99146.14;107838;1308;23087;-38
2024/01/07 06:55:39;;;;;;;15.40;10.10;;;;;;;-5.71;85.50;99145.62;107858;1308;22461;-37
2024/01/07 06:58:04;;;;;;;18.90;10.50;;;;;;;-5.72;85.54;99147.14;107855;1308;22255;-38
2024/01/07 07:00:29;;;;;;;16.00;10.10;;;;;;;-5.71;85.71;99149.88;107813;1308;22348;-38
2024/01/07 07:02:55;;;;;;;17.40;11.00;;;;;;;-5.66;85.57;99151.80;107829;1308;22273;-38
2024/01/07 07:05:20;;;;;;;17.90;10.80;;;;;;;-5.68;85.53;99151.80;107830;1308;22464;-38
2024/01/07 07:07:45;;;;;;;18.00;9.70;;;;;;;-5.70;85.59;99154.69;107821;1308;22384;-41
2024/01/07 07:10:11;;;;;;;17.10;10.40;;;;;;;-5.72;85.64;99160.12;107794;1308;22299;-40
2024/01/07 07:12:36;;;;;;;17.90;10.30;;;;;;;-5.70;85.43;99161.85;107811;1308;22421;-37
2024/01/07 07:15:01;;;;;;;16.30;9.70;;;;;;;-5.68;85.22;99166.82;107801;1308;23269;-41
2024/01/07 07:17:27;;;;;;;15.20;9.40;;;;;;;-5.69;85.32;99167.33;107834;1308;22240;-40
2024/01/07 07:19:52;;;;;;;21.00;10.60;;;;;;;-5.71;85.23;99177.55;107838;1308;22790;-40
2024/01/07 07:22:17;;;;;;;15.80;9.90;;;;;;;-5.80;85.28;99176.96;107839;1308;22245;-41
2024/01/07 07:24:42;;;;;;;18.70;11.20;;;;;;;-5.84;85.19;99175.90;107818;1308;22310;-41
2024/01/07 07:27:08;;;;;;;18.20;10.60;;;;;;;-5.84;85.30;99179.30;107826;1308;23061;-41
2024/01/07 07:29:33;;;;;;;24.40;12.60;;;;;;;-5.84;85.54;99182.23;107830;1308;22356;-40
2024/01/07 07:32:00;;;;;;;17.80;11.40;;;;;;;-5.80;85.92;99187.89;107825;1308;22511;-38
2024/01/07 07:34:25;;;;;;;18.80;10.50;;;;;;;-5.76;85.62;99190.31;107835;1308;23074;-39
2024/01/07 07:36:51;;;;;;;15.90;10.10;;;;;;;-5.76;85.22;99187.07;107821;1308;23062;-38
2024/01/07 07:39:16;;;;;;;17.20;10.30;;;;;;;-5.78;85.26;99184.84;107860;1308;22394;-42
2024/01/07 07:41:42;;;;;;;16.10;9.10;;;;;;;-5.75;85.22;99187.08;107837;1308;22327;-38
2024/01/07 07:44:07;;;;;;;16.60;10.40;;;;;;;-5.75;85.15;99186.05;107830;1308;22337;-38
2024/01/07 07:46:32;;;;;;;20.00;10.10;;;;;;;-5.69;85.23;99190.38;107818;1308;23211;-38
2024/01/07 07:48:58;;;;;;;15.30;10.10;;;;;;;-5.65;85.06;99192.63;107816;1308;22392;-39
2024/01/07 07:51:23;;;;;;;27.20;14.30;;;;;;;-5.84;84.84;99195.70;107823;1308;23010;-40
2024/01/07 07:53:49;;;;;;;20.90;12.20;;;;;;;-5.74;85.15;99194.78;107812;1308;22402;-39
2024/01/07 07:56:14;;;;;;;19.60;11.10;;;;;;;-5.72;84.84;99194.96;107840;1308;23073;-38
2024/01/07 07:58:39;;;;;;;21.60;11.60;;;;;;;-5.70;84.84;99192.07;107831;1308;22528;-41
2024/01/07 08:01:05;;;;;;;21.60;11.00;;;;;;;-5.73;84.75;99194.45;107813;1308;22242;-39
2024/01/07 08:03:31;;;;;;;20.20;11.00;;;;;;;-5.81;84.95;99189.41;107827;1308;22440;-38
2024/01/07 08:05:57;;;;;;;28.30;16.40;;;;;;;-5.88;84.80;99189.02;107869;1308;22233;-39
2024/01/07 08:08:22;;;;;;;19.50;12.00;;;;;;;-5.87;85.23;99191.93;107834;1308;22379;-40
2024/01/07 08:10:47;;;;;;;20.10;11.30;;;;;;;-5.83;85.72;99194.18;107823;1308;22241;-40
2024/01/07 08:13:13;;;;;;;20.60;12.60;;;;;;;-5.78;85.39;99199.86;107843;1308;22345;-38
2024/01/07 08:15:39;;;;;;;18.80;11.60;;;;;;;-5.70;85.66;99201.80;107867;1308;22666;-40
2024/01/07 08:18:04;;;;;;;20.40;12.30;;;;;;;-5.59;85.52;99202.93;107826;1308;23013;-40
2024/01/07 08:20:30;;;;;;;21.10;11.50;;;;;;;-5.61;84.71;99211.96;107836;1308;22252;-38
2024/01/07 08:22:55;;;;;;;19.50;11.00;;;;;;;-5.67;84.66;99211.23;107834;1308;22432;-40
2024/01/07 08:25:21;;;;;;;18.40;11.00;;;;;;;-5.63;84.64;99209.89;107829;1308;23019;-40
2024/01/07 08:27:46;;;;;;;22.60;11.70;;;;;;;-5.67;84.79;99206.95;107833;1308;22377;-39
2024/01/07 08:30:15;;;;;;;18.40;11.60;;;;;;;-5.66;85.10;99211.92;107829;1308;22464;-38
2024/01/07 08:32:41;;;;;;;23.40;12.20;;;;;;;-5.60;84.99;99210.77;107846;1308;22482;-38
2024/01/07 08:35:07;;;;;;;24.90;13.50;;;;;;;-5.56;84.96;99219.87;107832;1308;22267;-39
2024/01/07 08:37:32;;;;;;;20.70;12.20;;;;;;;-5.50;85.30;99218.89;107827;1308;22432;-41
2024/01/07 08:39:58;;;;;;;25.50;14.70;;;;;;;-5.42;84.93;99220.31;107837;1308;22470;-40
2024/01/07 08:42:24;;;;;;;25.50;15.60;;;;;;;-5.49;84.62;99221.28;107808;1308;22324;-40
2024/01/07 08:44:49;;;;;;;24.60;15.50;;;;;;;-5.42;84.70;99221.16;107830;1308;22971;-38
2024/01/07 08:47:15;;;;;;;25.00;14.40;;;;;;;-5.43;84.62;99226.45;107835;1298;23059;-40
2024/01/07 08:49:40;;;;;;;24.30;13.90;;;;;;;-5.47;84.05;99224.55;107797;1308;22479;-40
2024/01/07 08:52:05;;;;;;;27.10;17.00;;;;;;;-5.46;84.52;99224.38;107820;1308;23112;-40
2024/01/07 08:54:31;;;;;;;29.10;16.50;;;;;;;-5.45;84.40;99227.45;107847;1308;22332;-40
2024/01/07 08:56:56;;;;;;;25.70;15.00;;;;;;;-5.45;84.70;99230.19;107831;1308;22409;-38
2024/01/07 08:59:21;;;;;;;24.10;14.10;;;;;;;-5.40;84.65;99230.58;107818;1308;22310;-40
2024/01/07 09:01:46;;;;;;;24.20;14.30;;;;;;;-5.35;84.62;99232.33;107809;1308;22430;-36
2024/01/07 09:04:12;;;;;;;25.00;14.30;;;;;;;-5.36;84.27;99229.41;107830;1308;22238;-38
2024/01/07 09:06:38;;;;;;;26.80;16.60;;;;;;;-5.38;84.44;99234.02;107817;1308;24218;-42
2024/01/07 09:09:06;;;;;;;25.50;16.20;;;;;;;-5.35;84.60;99238.48;107851;1308;22937;-39
2024/01/07 09:11:32;;;;;;;28.20;16.80;;;;;;;-5.38;84.28;99239.66;107825;1308;22391;-38
2024/01/07 09:13:57;;;;;;;34.80;19.70;;;;;;;-5.42;84.24;99240.30;107845;1308;22245;-40
2024/01/07 09:16:22;;;;;;;31.90;16.00;;;;;;;-5.50;84.69;99241.27;107527;1308;22305;-40
2024/01/07 09:18:47;;;;;;;26.60;15.20;;;;;;;-5.45;84.75;99245.74;107831;1308;22242;-41
2024/01/07 09:21:14;;;;;;;33.10;20.70;;;;;;;-5.46;84.61;99242.66;107823;1308;22301;-39
2024/01/07 09:23:39;;;;;;;29.00;16.30;;;;;;;-5.37;84.92;99249.23;107830;1308;22265;-38
2024/01/07 09:26:04;;;;;;;31.90;17.90;;;;;;;-5.44;84.18;99251.56;107837;1308;22248;-42
2024/01/07 09:28:30;;;;;;;35.10;20.00;;;;;;;-5.45;84.31;99251.38;107807;1308;22251;-41
2024/01/07 09:30:55;;;;;;;47.40;25.60;;;;;;;-5.58;84.32;99248.20;107845;1308;22256;-39
2024/01/07 09:33:23;;;;;;;32.00;18.50;;;;;;;-5.46;84.72;99253.25;107814;1308;22873;-40
2024/01/07 09:35:51;;;;;;;43.80;21.70;;;;;;;-5.44;84.45;99249.86;107816;1308;22427;-39
2024/01/07 09:38:25;;;;;;;35.40;20.60;;;;;;;-5.38;84.65;99244.77;107839;1308;22230;-41
2024/01/07 09:40:52;;;;;;;30.80;17.20;;;;;;;-5.33;84.74;99249.09;107813;1308;22564;-41
2024/01/07 09:43:18;;;;;;;30.90;15.40;;;;;;;-5.36;84.68;99247.18;107834;1308;22303;-39
2024/01/07 09:45:47;;;;;;;35.80;17.70;;;;;;;-5.34;84.61;99246.00;107835;1308;22446;-39
2024/01/07 09:48:12;;;;;;;47.90;18.20;;;;;;;-5.40;84.34;99248.00;107822;1308;22258;-40
2024/01/07 09:50:37;;;;;;;44.10;24.60;;;;;;;-5.50;84.48;99241.10;107809;1308;23104;-38
2024/01/07 09:53:04;;;;;;;36.20;20.70;;;;;;;-5.38;84.86;99242.21;107797;1308;22545;-39
2024/01/07 09:56:17;;;;;;;30.80;18.00;;;;;;;-5.42;84.56;99245.27;107844;1308;23613;-38
2024/01/07 09:58:43;;;;;;;33.60;16.90;;;;;;;-5.41;84.49;99241.34;107154;1315;22264;-40
2024/01/07 10:01:10;;;;;;;36.00;19.10;;;;;;;-5.42;84.42;99238.08;107132;1315;23250;-38
2024/01/07 10:03:35;;;;;;;35.30;18.50;;;;;;;-5.43;84.64;99239.45;107144;1315;22918;-38
2024/01/07 10:06:00;;;;;;;41.50;22.70;;;;;;;-5.40;85.12;99238.77;107163;1315;23209;-40
2024/01/07 10:08:26;;;;;;;39.00;20.20;;;;;;;-5.33;85.79;99238.15;107145;1315;22287;-39
2024/01/07 10:10:51;;;;;;;28.50;16.90;;;;;;;-5.32;85.16;99235.94;107157;1315;23404;-39
2024/01/07 10:13:16;;;;;;;43.40;23.90;;;;;;;-5.38;84.56;99237.61;107157;1315;22278;-39
2024/01/07 10:15:43;;;;;;;49.50;22.40;;;;;;;-5.40;84.60;99239.11;107142;1315;22492;-38
2024/01/07 10:18:09;;;;;;;43.20;24.50;;;;;;;-5.39;84.78;99238.77;107161;1315;23460;-40
2024/01/07 10:20:35;;;;;;;37.90;20.10;;;;;;;-5.36;85.07;99238.46;107143;1315;22356;-40
2024/01/07 10:23:04;;;;;;;45.90;23.30;;;;;;;-5.42;84.78;99242.02;107151;1315;23179;-39
2024/01/07 10:25:34;;;;;;;39.00;21.10;;;;;;;-5.33;84.55;99243.97;107167;1315;22308;-38
2024/01/07 10:28:01;;;;;;;28.10;15.60;;;;;;;-5.35;84.69;99243.95;107142;1315;22287;-40
2024/01/07 10:30:27;;;;;;;28.80;17.30;;;;;;;-5.32;84.87;99245.51;107151;1298;22292;-38
2024/01/07 10:32:57;;;;;;;38.30;17.20;;;;;;;-5.26;84.84;99245.73;107146;1315;22350;-40
2024/01/07 10:35:29;;;;;;;28.00;16.00;;;;;;;-5.19;84.62;99245.95;107717;1308;22322;-38
2024/01/07 10:37:54;;;;;;;28.20;14.10;;;;;;;-5.13;84.40;99245.30;107820;1308;22409;-38
2024/01/07 10:40:20;;;;;;;32.20;16.10;;;;;;;-5.10;84.50;99242.25;107822;1308;22199;-37
